TNO5555 AYGA-WAPF
Flight info
| Callsign | TNO5555 |
|---|---|
| Flight time | N/A |
| Altitude | 38000 |
| Route | MUDIX H409 OKT DCT MALIO W67 TMK T18 ESNES |
| Aircraft | A20N/M-SDE2E3FGHIRWXY/LB1 |
Departure
| Time | N/A |
|---|---|
| Airport | Goroka Airport (AYGA) |
Arrival
| Time | 2026-05-06 02:56 |
|---|---|
| Airport | Karel Sadsuitubun Airport (WAPF) |
| Time | Latitude | Longitude | Altitude | Speed | Heading |
|---|---|---|---|---|---|
| 2026-05-06 01:16 | -5.45769 | 143.62602 | 33337 ft | 458 kts | 292° |
| 2026-05-06 01:17 | -5.44598 | 143.59629 | 33621 ft | 458 kts | 292° |
| 2026-05-06 01:17 | -5.42226 | 143.53609 | 34175 ft | 457 kts | 292° |
| 2026-05-06 01:17 | -5.41058 | 143.50646 | 34468 ft | 455 kts | 292° |
| 2026-05-06 01:18 | -5.39895 | 143.47695 | 34710 ft | 455 kts | 292° |
| 2026-05-06 01:18 | -5.38748 | 143.44783 | 34909 ft | 455 kts | 292° |
| 2026-05-06 01:18 | -5.37583 | 143.41827 | 35126 ft | 455 kts | 292° |
| 2026-05-06 01:18 | -5.36422 | 143.38882 | 35370 ft | 454 kts | 292° |
| 2026-05-06 01:19 | -5.35262 | 143.35940 | 35593 ft | 453 kts | 292° |
| 2026-05-06 01:19 | -5.34100 | 143.32996 | 35796 ft | 453 kts | 292° |
| 2026-05-06 01:19 | -5.32940 | 143.30055 | 35993 ft | 453 kts | 292° |
| 2026-05-06 01:19 | -5.31781 | 143.27117 | 36198 ft | 453 kts | 292° |
| 2026-05-06 01:20 | -5.30623 | 143.24184 | 36399 ft | 452 kts | 292° |
| 2026-05-06 01:20 | -5.29466 | 143.21250 | 36607 ft | 452 kts | 292° |
| 2026-05-06 01:20 | -5.28325 | 143.18361 | 36801 ft | 451 kts | 292° |
| 2026-05-06 01:20 | -5.27171 | 143.15438 | 36988 ft | 451 kts | 292° |
| 2026-05-06 01:21 | -5.26016 | 143.12511 | 37185 ft | 450 kts | 292° |
| 2026-05-06 01:21 | -5.24865 | 143.09597 | 37368 ft | 450 kts | 292° |
| 2026-05-06 01:21 | -5.23713 | 143.06679 | 37553 ft | 449 kts | 292° |
| 2026-05-06 01:21 | -5.22561 | 143.03763 | 37692 ft | 449 kts | 292° |
| 2026-05-06 01:22 | -5.21412 | 143.00855 | 37864 ft | 449 kts | 292° |
| 2026-05-06 01:22 | -5.20262 | 142.97944 | 37986 ft | 449 kts | 293° |
| 2026-05-06 01:22 | -5.17977 | 142.92162 | 37987 ft | 448 kts | 293° |
| 2026-05-06 01:23 | -5.15680 | 142.86355 | 37983 ft | 448 kts | 292° |
| 2026-05-06 01:23 | -5.13378 | 142.80534 | 37982 ft | 450 kts | 293° |
| 2026-05-06 01:24 | -5.11070 | 142.74702 | 37974 ft | 450 kts | 292° |
| 2026-05-06 01:24 | -5.08777 | 142.68907 | 37955 ft | 450 kts | 292° |
| 2026-05-06 01:25 | -5.06469 | 142.63073 | 37953 ft | 450 kts | 292° |
| 2026-05-06 01:25 | -5.04156 | 142.57233 | 37951 ft | 450 kts | 292° |
| 2026-05-06 01:26 | -5.01844 | 142.51395 | 37944 ft | 450 kts | 292° |
| 2026-05-06 01:26 | -4.99547 | 142.45597 | 37950 ft | 450 kts | 292° |
| 2026-05-06 01:27 | -4.97234 | 142.39762 | 37946 ft | 450 kts | 292° |
| 2026-05-06 01:27 | -4.94921 | 142.33926 | 37953 ft | 450 kts | 292° |
| 2026-05-06 01:28 | -4.92607 | 142.28092 | 37947 ft | 450 kts | 292° |
| 2026-05-06 01:28 | -4.90297 | 142.22267 | 37946 ft | 449 kts | 292° |
| 2026-05-06 01:29 | -4.88005 | 142.16490 | 37946 ft | 449 kts | 292° |
| 2026-05-06 01:29 | -4.85697 | 142.10674 | 37946 ft | 449 kts | 292° |
| 2026-05-06 01:30 | -4.83388 | 142.04857 | 37949 ft | 449 kts | 292° |
| 2026-05-06 01:30 | -4.81082 | 141.99051 | 37951 ft | 448 kts | 292° |
| 2026-05-06 01:31 | -4.78794 | 141.93290 | 37932 ft | 448 kts | 292° |
| 2026-05-06 01:31 | -4.76485 | 141.87479 | 37933 ft | 449 kts | 292° |
| 2026-05-06 01:32 | -4.74175 | 141.81667 | 37931 ft | 449 kts | 292° |
| 2026-05-06 01:32 | -4.71862 | 141.75849 | 37929 ft | 449 kts | 292° |
| 2026-05-06 01:33 | -4.69563 | 141.70067 | 37935 ft | 449 kts | 292° |
| 2026-05-06 01:33 | -4.67248 | 141.64246 | 37936 ft | 450 kts | 292° |
| 2026-05-06 01:34 | -4.64932 | 141.58427 | 37918 ft | 450 kts | 292° |
| 2026-05-06 01:34 | -4.62615 | 141.52603 | 37921 ft | 450 kts | 292° |
| 2026-05-06 01:35 | -4.60313 | 141.46821 | 37924 ft | 450 kts | 292° |
| 2026-05-06 01:35 | -4.57995 | 141.41000 | 37921 ft | 450 kts | 292° |
| 2026-05-06 01:36 | -4.55678 | 141.35182 | 37923 ft | 449 kts | 292° |
| 2026-05-06 01:36 | -4.53364 | 141.29373 | 37924 ft | 448 kts | 292° |
| 2026-05-06 01:37 | -4.51069 | 141.23616 | 37912 ft | 448 kts | 292° |
| 2026-05-06 01:37 | -4.48761 | 141.17824 | 37910 ft | 448 kts | 292° |
| 2026-05-06 01:38 | -4.46451 | 141.12031 | 37914 ft | 447 kts | 292° |
| 2026-05-06 01:38 | -4.44141 | 141.06240 | 37911 ft | 448 kts | 292° |
| 2026-05-06 01:39 | -4.41836 | 141.00462 | 37917 ft | 451 kts | 292° |
| 2026-05-06 01:39 | -4.39504 | 140.94617 | 37917 ft | 452 kts | 292° |
| 2026-05-06 01:40 | -4.37169 | 140.88766 | 37903 ft | 452 kts | 292° |
| 2026-05-06 01:40 | -4.34833 | 140.82915 | 37905 ft | 452 kts | 292° |
| 2026-05-06 01:41 | -4.32519 | 140.77121 | 37914 ft | 451 kts | 292° |
| 2026-05-06 01:41 | -4.30188 | 140.71284 | 37914 ft | 451 kts | 292° |
| 2026-05-06 01:42 | -4.27857 | 140.65452 | 37927 ft | 451 kts | 292° |
| 2026-05-06 01:42 | -4.25529 | 140.59626 | 37939 ft | 450 kts | 292° |
| 2026-05-06 01:43 | -4.23219 | 140.53846 | 37915 ft | 450 kts | 292° |
| 2026-05-06 01:43 | -4.20890 | 140.48022 | 37922 ft | 450 kts | 292° |
| 2026-05-06 01:44 | -4.18560 | 140.42195 | 37920 ft | 451 kts | 292° |
| 2026-05-06 01:44 | -4.16229 | 140.36368 | 37929 ft | 451 kts | 292° |
| 2026-05-06 01:45 | -4.13914 | 140.30584 | 37930 ft | 450 kts | 292° |
| 2026-05-06 01:45 | -4.11583 | 140.24759 | 37930 ft | 450 kts | 292° |
| 2026-05-06 01:46 | -4.09253 | 140.18939 | 37913 ft | 451 kts | 292° |
| 2026-05-06 01:46 | -4.06926 | 140.13128 | 37925 ft | 454 kts | 292° |
| 2026-05-06 01:47 | -4.04577 | 140.07261 | 37926 ft | 454 kts | 292° |
| 2026-05-06 01:47 | -4.02227 | 140.01394 | 37928 ft | 454 kts | 292° |
| 2026-05-06 01:48 | -3.99873 | 139.95520 | 37935 ft | 454 kts | 292° |
| 2026-05-06 01:48 | -3.97917 | 139.90640 | 37937 ft | 454 kts | 292° |
| 2026-05-06 01:49 | -3.95182 | 139.83818 | 37913 ft | 454 kts | 292° |
| 2026-05-06 01:49 | -3.92833 | 139.77959 | 37918 ft | 453 kts | 292° |
| 2026-05-06 01:50 | -3.90878 | 139.73085 | 37922 ft | 454 kts | 292° |
| 2026-05-06 01:50 | -3.88521 | 139.67207 | 37928 ft | 455 kts | 292° |
| 2026-05-06 01:51 | -3.85934 | 139.60761 | 37935 ft | 456 kts | 292° |
| 2026-05-06 01:51 | -3.83587 | 139.54913 | 37936 ft | 455 kts | 292° |
| 2026-05-06 01:52 | -3.81224 | 139.49028 | 37915 ft | 456 kts | 292° |
| 2026-05-06 01:52 | -3.78858 | 139.43136 | 37928 ft | 456 kts | 292° |
| 2026-05-06 01:53 | -3.76551 | 139.37231 | 37925 ft | 456 kts | 287° |
| 2026-05-06 01:53 | -3.75611 | 139.31030 | 37940 ft | 455 kts | 267° |
| 2026-05-06 01:54 | -3.76661 | 139.24811 | 37947 ft | 455 kts | 256° |
| 2026-05-06 01:54 | -3.78307 | 139.18683 | 37949 ft | 456 kts | 254° |
| 2026-05-06 01:55 | -3.80042 | 139.12571 | 37947 ft | 456 kts | 254° |
| 2026-05-06 01:55 | -3.81737 | 139.06487 | 37980 ft | 457 kts | 255° |
| 2026-05-06 01:56 | -3.83415 | 139.00351 | 37981 ft | 457 kts | 255° |
| 2026-05-06 01:56 | -3.85085 | 138.94208 | 37988 ft | 457 kts | 255° |
| 2026-05-06 01:57 | -3.86755 | 138.88058 | 37997 ft | 457 kts | 255° |
| 2026-05-06 01:57 | -3.88412 | 138.81960 | 37999 ft | 457 kts | 255° |
| 2026-05-06 01:58 | -3.90079 | 138.75828 | 38021 ft | 456 kts | 255° |
| 2026-05-06 01:58 | -3.91745 | 138.69698 | 38020 ft | 456 kts | 255° |
| 2026-05-06 01:59 | -3.93411 | 138.63565 | 38029 ft | 456 kts | 255° |
| 2026-05-06 01:59 | -3.95077 | 138.57429 | 38028 ft | 456 kts | 255° |
| 2026-05-06 02:00 | -3.96731 | 138.51340 | 38044 ft | 457 kts | 255° |
| 2026-05-06 02:00 | -3.98398 | 138.45195 | 38045 ft | 457 kts | 255° |
| 2026-05-06 02:01 | -4.00062 | 138.39065 | 38056 ft | 456 kts | 254° |
| 2026-05-06 02:01 | -4.01723 | 138.32941 | 38058 ft | 456 kts | 255° |
| 2026-05-06 02:02 | -4.03373 | 138.26858 | 38058 ft | 455 kts | 255° |
| 2026-05-06 02:02 | -4.05032 | 138.20735 | 38060 ft | 455 kts | 254° |
| 2026-05-06 02:03 | -4.06683 | 138.14643 | 38058 ft | 452 kts | 254° |
| 2026-05-06 02:03 | -4.08330 | 138.08565 | 38059 ft | 452 kts | 254° |
| 2026-05-06 02:04 | -4.09975 | 138.02491 | 38050 ft | 452 kts | 254° |
| 2026-05-06 02:04 | -4.11608 | 137.96456 | 38054 ft | 452 kts | 254° |
| 2026-05-06 02:05 | -4.13255 | 137.90372 | 38052 ft | 452 kts | 254° |
| 2026-05-06 02:05 | -4.14901 | 137.84288 | 38053 ft | 453 kts | 254° |
| 2026-05-06 02:06 | -4.16545 | 137.78208 | 38056 ft | 452 kts | 254° |
| 2026-05-06 02:06 | -4.18190 | 137.72126 | 38031 ft | 452 kts | 254° |
| 2026-05-06 02:07 | -4.19822 | 137.66086 | 38036 ft | 452 kts | 254° |
| 2026-05-06 02:07 | -4.21464 | 137.60012 | 38036 ft | 452 kts | 254° |
| 2026-05-06 02:08 | -4.23107 | 137.53930 | 38037 ft | 451 kts | 255° |
| 2026-05-06 02:08 | -4.24730 | 137.47918 | 38037 ft | 450 kts | 255° |
| 2026-05-06 02:09 | -4.26364 | 137.41864 | 38038 ft | 450 kts | 254° |
| 2026-05-06 02:09 | -4.27998 | 137.35808 | 38009 ft | 450 kts | 254° |
| 2026-05-06 02:10 | -4.29628 | 137.29764 | 38002 ft | 449 kts | 254° |
| 2026-05-06 02:10 | -4.31257 | 137.23725 | 38004 ft | 449 kts | 254° |
| 2026-05-06 02:11 | -4.32873 | 137.17733 | 38003 ft | 449 kts | 254° |
| 2026-05-06 02:11 | -4.34500 | 137.11695 | 37995 ft | 449 kts | 255° |
| 2026-05-06 02:12 | -4.36127 | 137.05654 | 37961 ft | 449 kts | 254° |
| 2026-05-06 02:12 | -4.37743 | 136.99654 | 37960 ft | 449 kts | 254° |
| 2026-05-06 02:13 | -4.39370 | 136.93609 | 37958 ft | 450 kts | 254° |
| 2026-05-06 02:13 | -4.41000 | 136.87554 | 37949 ft | 450 kts | 254° |
| 2026-05-06 02:14 | -4.42631 | 136.81490 | 37953 ft | 451 kts | 254° |
| 2026-05-06 02:14 | -4.44251 | 136.75464 | 37941 ft | 451 kts | 254° |
| 2026-05-06 02:15 | -4.45885 | 136.69388 | 37914 ft | 453 kts | 255° |
| 2026-05-06 02:15 | -4.47524 | 136.63289 | 37914 ft | 454 kts | 255° |
| 2026-05-06 02:16 | -4.49162 | 136.57190 | 37914 ft | 453 kts | 255° |
| 2026-05-06 02:16 | -4.50801 | 136.51085 | 37914 ft | 453 kts | 255° |
| 2026-05-06 02:17 | -4.52429 | 136.45023 | 37912 ft | 454 kts | 255° |
| 2026-05-06 02:17 | -4.54068 | 136.38914 | 37903 ft | 454 kts | 255° |
| 2026-05-06 02:18 | -4.55707 | 136.32806 | 37906 ft | 454 kts | 255° |
| 2026-05-06 02:18 | -4.57345 | 136.26699 | 37907 ft | 454 kts | 255° |
| 2026-05-06 02:19 | -4.58972 | 136.20627 | 37906 ft | 454 kts | 255° |
| 2026-05-06 02:19 | -4.60610 | 136.14514 | 37906 ft | 454 kts | 255° |
| 2026-05-06 02:20 | -4.63071 | 136.05329 | 37901 ft | 455 kts | 255° |
| 2026-05-06 02:21 | -4.64701 | 135.99240 | 37897 ft | 455 kts | 255° |
| 2026-05-06 02:21 | -4.66342 | 135.93111 | 37896 ft | 456 kts | 255° |
| 2026-05-06 02:22 | -4.67987 | 135.86962 | 37898 ft | 457 kts | 255° |
| 2026-05-06 02:22 | -4.69634 | 135.80802 | 37896 ft | 458 kts | 255° |
| 2026-05-06 02:23 | -4.71282 | 135.74636 | 37893 ft | 458 kts | 255° |
| 2026-05-06 02:23 | -4.72920 | 135.68507 | 37895 ft | 459 kts | 255° |
| 2026-05-06 02:24 | -4.74569 | 135.62332 | 37891 ft | 459 kts | 255° |
| 2026-05-06 02:24 | -4.76220 | 135.56149 | 37890 ft | 458 kts | 256° |
| 2026-05-06 02:25 | -4.77867 | 135.49979 | 37893 ft | 458 kts | 255° |
| 2026-05-06 02:25 | -4.79502 | 135.43853 | 37891 ft | 458 kts | 256° |
| 2026-05-06 02:26 | -4.81147 | 135.37682 | 37885 ft | 458 kts | 256° |
| 2026-05-06 02:26 | -4.82788 | 135.31529 | 37888 ft | 456 kts | 255° |
| 2026-05-06 02:27 | -4.84423 | 135.25396 | 37892 ft | 455 kts | 256° |
| 2026-05-06 02:27 | -4.86045 | 135.19305 | 37892 ft | 455 kts | 256° |
| 2026-05-06 02:28 | -4.87677 | 135.13181 | 37891 ft | 453 kts | 257° |
| 2026-05-06 02:28 | -4.89297 | 135.07098 | 37892 ft | 451 kts | 257° |
| 2026-05-06 02:29 | -4.90913 | 135.01020 | 37901 ft | 451 kts | 256° |
| 2026-05-06 02:29 | -4.91710 | 134.98023 | 37704 ft | 450 kts | 258° |
| 2026-05-06 02:29 | -4.92515 | 134.94997 | 37444 ft | 449 kts | 257° |
| 2026-05-06 02:29 | -4.93321 | 134.91967 | 37198 ft | 450 kts | 256° |
| 2026-05-06 02:30 | -4.94129 | 134.88926 | 36944 ft | 452 kts | 257° |
| 2026-05-06 02:30 | -4.94939 | 134.85878 | 36700 ft | 453 kts | 256° |
| 2026-05-06 02:30 | -4.95751 | 134.82820 | 36453 ft | 455 kts | 256° |
| 2026-05-06 02:30 | -4.96566 | 134.79754 | 36209 ft | 456 kts | 255° |
| 2026-05-06 02:31 | -4.97383 | 134.76679 | 35972 ft | 458 kts | 255° |
| 2026-05-06 02:31 | -4.98193 | 134.73629 | 35746 ft | 459 kts | 255° |
| 2026-05-06 02:31 | -4.99015 | 134.70533 | 35507 ft | 460 kts | 256° |
| 2026-05-06 02:31 | -4.99840 | 134.67428 | 35274 ft | 462 kts | 256° |
| 2026-05-06 02:32 | -5.00667 | 134.64310 | 35047 ft | 463 kts | 255° |
| 2026-05-06 02:32 | -5.01495 | 134.61193 | 34816 ft | 464 kts | 255° |
| 2026-05-06 02:32 | -5.02328 | 134.58056 | 34592 ft | 467 kts | 256° |
| 2026-05-06 02:32 | -5.03164 | 134.54903 | 34369 ft | 468 kts | 255° |
| 2026-05-06 02:33 | -5.04000 | 134.51749 | 34147 ft | 469 kts | 255° |
| 2026-05-06 02:33 | -5.04556 | 134.49654 | 34001 ft | 470 kts | 255° |
| 2026-05-06 02:33 | -5.06686 | 134.42315 | 33422 ft | 471 kts | 253° |
| 2026-05-06 02:34 | -5.07635 | 134.39175 | 33160 ft | 471 kts | 254° |
| 2026-05-06 02:34 | -5.08583 | 134.36035 | 32921 ft | 471 kts | 254° |
| 2026-05-06 02:34 | -5.09530 | 134.32893 | 32674 ft | 470 kts | 254° |
| 2026-05-06 02:34 | -5.10476 | 134.29748 | 32430 ft | 471 kts | 253° |
| 2026-05-06 02:35 | -5.11421 | 134.26603 | 32182 ft | 471 kts | 254° |
| 2026-05-06 02:35 | -5.12367 | 134.23455 | 31941 ft | 471 kts | 254° |
| 2026-05-06 02:35 | -5.13309 | 134.20320 | 31229 ft | 468 kts | 255° |
| 2026-05-06 02:35 | -5.14238 | 134.17224 | 30220 ft | 471 kts | 254° |
| 2026-05-06 02:36 | -5.15188 | 134.14062 | 28972 ft | 475 kts | 254° |
| 2026-05-06 02:36 | -5.16143 | 134.10878 | 27703 ft | 479 kts | 253° |
| 2026-05-06 02:36 | -5.17106 | 134.07669 | 26491 ft | 480 kts | 254° |
| 2026-05-06 02:36 | -5.18071 | 134.04453 | 25256 ft | 482 kts | 253° |
| 2026-05-06 02:37 | -5.19039 | 134.01225 | 24028 ft | 485 kts | 253° |
| 2026-05-06 02:37 | -5.20007 | 133.97998 | 22932 ft | 481 kts | 253° |
| 2026-05-06 02:37 | -5.20959 | 133.94825 | 22251 ft | 466 kts | 253° |
| 2026-05-06 02:37 | -5.21861 | 133.91818 | 21945 ft | 444 kts | 253° |
| 2026-05-06 02:38 | -5.22725 | 133.88936 | 21869 ft | 419 kts | 253° |
| 2026-05-06 02:38 | -5.23548 | 133.86192 | 21887 ft | 408 kts | 254° |
| 2026-05-06 02:38 | -5.24362 | 133.83470 | 21887 ft | 407 kts | 253° |
| 2026-05-06 02:38 | -5.25175 | 133.80755 | 21889 ft | 407 kts | 254° |
| 2026-05-06 02:39 | -5.25992 | 133.78026 | 21887 ft | 408 kts | 254° |
| 2026-05-06 02:39 | -5.26808 | 133.75301 | 21886 ft | 408 kts | 254° |
| 2026-05-06 02:39 | -5.27613 | 133.72610 | 21886 ft | 408 kts | 254° |
| 2026-05-06 02:39 | -5.28431 | 133.69878 | 21888 ft | 408 kts | 254° |
| 2026-05-06 02:40 | -5.29245 | 133.67158 | 21461 ft | 408 kts | 254° |
| 2026-05-06 02:40 | -5.30069 | 133.64404 | 20527 ft | 416 kts | 254° |
| 2026-05-06 02:40 | -5.30910 | 133.61592 | 19528 ft | 426 kts | 254° |
| 2026-05-06 02:40 | -5.31773 | 133.58709 | 18453 ft | 437 kts | 254° |
| 2026-05-06 02:41 | -5.32644 | 133.55794 | 17294 ft | 446 kts | 254° |
| 2026-05-06 02:41 | -5.33539 | 133.52801 | 16393 ft | 448 kts | 254° |
| 2026-05-06 02:41 | -5.34424 | 133.49842 | 16003 ft | 436 kts | 254° |
| 2026-05-06 02:41 | -5.35280 | 133.46982 | 15754 ft | 421 kts | 255° |
| 2026-05-06 02:42 | -5.36106 | 133.44219 | 15541 ft | 406 kts | 254° |
| 2026-05-06 02:42 | -5.36907 | 133.41542 | 15281 ft | 395 kts | 254° |
| 2026-05-06 02:42 | -5.37693 | 133.38911 | 14653 ft | 395 kts | 254° |
| 2026-05-06 02:42 | -5.38478 | 133.36280 | 14123 ft | 392 kts | 253° |
| 2026-05-06 02:43 | -5.39250 | 133.33695 | 13682 ft | 386 kts | 254° |
| 2026-05-06 02:43 | -5.40010 | 133.31148 | 12962 ft | 387 kts | 253° |
| 2026-05-06 02:43 | -5.40781 | 133.28566 | 12488 ft | 382 kts | 253° |
| 2026-05-06 02:43 | -5.41538 | 133.26029 | 11990 ft | 377 kts | 253° |
| 2026-05-06 02:44 | -5.42286 | 133.23521 | 11390 ft | 376 kts | 253° |
| 2026-05-06 02:44 | -5.43034 | 133.21015 | 10821 ft | 373 kts | 253° |
| 2026-05-06 02:44 | -5.43774 | 133.18535 | 10355 ft | 368 kts | 253° |
| 2026-05-06 02:44 | -5.44501 | 133.16097 | 10003 ft | 360 kts | 253° |
| 2026-05-06 02:45 | -5.45201 | 133.13747 | 9895 ft | 343 kts | 253° |
| 2026-05-06 02:45 | -5.45868 | 133.11512 | 9876 ft | 325 kts | 252° |
| 2026-05-06 02:45 | -5.46498 | 133.09396 | 9875 ft | 309 kts | 253° |
| 2026-05-06 02:45 | -5.47100 | 133.07378 | 9891 ft | 305 kts | 253° |
| 2026-05-06 02:46 | -5.47707 | 133.05341 | 9885 ft | 304 kts | 252° |
| 2026-05-06 02:46 | -5.48311 | 133.03316 | 9709 ft | 302 kts | 252° |
| 2026-05-06 02:46 | -5.48918 | 133.01280 | 9134 ft | 307 kts | 252° |
| 2026-05-06 02:46 | -5.49531 | 132.99225 | 8687 ft | 307 kts | 251° |
| 2026-05-06 02:47 | -5.50141 | 132.97176 | 8230 ft | 306 kts | 252° |
| 2026-05-06 02:47 | -5.50745 | 132.95148 | 7903 ft | 301 kts | 251° |
| 2026-05-06 02:47 | -5.51349 | 132.93120 | 7397 ft | 304 kts | 251° |
| 2026-05-06 02:47 | -5.51946 | 132.91114 | 6932 ft | 305 kts | 251° |
| 2026-05-06 02:48 | -5.52551 | 132.89084 | 6617 ft | 301 kts | 251° |
| 2026-05-06 02:48 | -5.53146 | 132.87085 | 6242 ft | 298 kts | 251° |
| 2026-05-06 02:48 | -5.53736 | 132.85103 | 5941 ft | 293 kts | 251° |
| 2026-05-06 02:48 | -5.54307 | 132.83180 | 5762 ft | 282 kts | 251° |
| 2026-05-06 02:49 | -5.54856 | 132.81332 | 5608 ft | 272 kts | 251° |
| 2026-05-06 02:49 | -5.55386 | 132.79547 | 5454 ft | 262 kts | 251° |
| 2026-05-06 02:49 | -5.55891 | 132.77847 | 5274 ft | 254 kts | 250° |
| 2026-05-06 02:49 | -5.56395 | 132.76159 | 5050 ft | 251 kts | 250° |
| 2026-05-06 02:50 | -5.56892 | 132.74492 | 4778 ft | 249 kts | 251° |
| 2026-05-06 02:50 | -5.57390 | 132.72820 | 4431 ft | 251 kts | 250° |
| 2026-05-06 02:50 | -5.57887 | 132.71150 | 4160 ft | 248 kts | 250° |
| 2026-05-06 02:50 | -5.58380 | 132.69493 | 3871 ft | 248 kts | 250° |
| 2026-05-06 02:51 | -5.58874 | 132.67834 | 3586 ft | 247 kts | 250° |
| 2026-05-06 02:51 | -5.59361 | 132.66194 | 3357 ft | 244 kts | 250° |
| 2026-05-06 02:51 | -5.59877 | 132.64566 | 3091 ft | 244 kts | 243° |
| 2026-05-06 02:51 | -5.60813 | 132.63248 | 2987 ft | 230 kts | 211° |
| 2026-05-06 02:52 | -5.62232 | 132.62686 | 2992 ft | 216 kts | 178° |
| 2026-05-06 02:52 | -5.63654 | 132.62995 | 3000 ft | 209 kts | 147° |
| 2026-05-06 02:52 | -5.64782 | 132.63910 | 3001 ft | 211 kts | 133° |
| 2026-05-06 02:52 | -5.65798 | 132.64989 | 2883 ft | 213 kts | 130° |
| 2026-05-06 02:53 | -5.66770 | 132.66059 | 2634 ft | 201 kts | 131° |
| 2026-05-06 02:53 | -5.67685 | 132.67060 | 2308 ft | 189 kts | 131° |
| 2026-05-06 02:53 | -5.68556 | 132.68004 | 2040 ft | 179 kts | 131° |
| 2026-05-06 02:53 | -5.69375 | 132.68885 | 1857 ft | 164 kts | 131° |
| 2026-05-06 02:54 | -5.70116 | 132.69680 | 1675 ft | 150 kts | 131° |
| 2026-05-06 02:54 | -5.70794 | 132.70407 | 1448 ft | 140 kts | 131° |
| 2026-05-06 02:54 | -5.71437 | 132.71096 | 1244 ft | 130 kts | 131° |
| 2026-05-06 02:54 | -5.72041 | 132.71739 | 1102 ft | 124 kts | 132° |
| 2026-05-06 02:55 | -5.72627 | 132.72364 | 965 ft | 122 kts | 131° |
| 2026-05-06 02:55 | -5.73209 | 132.72987 | 818 ft | 123 kts | 131° |
| 2026-05-06 02:55 | -5.73793 | 132.73613 | 696 ft | 122 kts | 133° |
| 2026-05-06 02:55 | -5.74376 | 132.74234 | 526 ft | 122 kts | 133° |
| 2026-05-06 02:56 | -5.74966 | 132.74839 | 319 ft | 121 kts | 137° |
| 2026-05-06 02:56 | -5.75506 | 132.75457 | 111 ft | 112 kts | 137° |
| 2026-05-06 02:56 | -5.75930 | 132.75898 | 111 ft | 49 kts | 133° |
| 2026-05-06 02:56 | -5.76001 | 132.75964 | 114 ft | 1 kts | 119° |
| 2026-05-06 02:57 | -5.75985 | 132.75958 | 113 ft | 9 kts | 309° |
| 2026-05-06 02:57 | -5.75886 | 132.75878 | 111 ft | 19 kts | 9° |
| 2026-05-06 02:57 | -5.75792 | 132.75949 | 105 ft | 17 kts | 37° |
| 2026-05-06 02:57 | -5.75707 | 132.75952 | 100 ft | 6 kts | 44° |
| 2026-05-06 02:58 | -5.75703 | 132.75972 | 96 ft | 0 kts | 89° |